sensor_id;sensor_type;location;lat;lon;timestamp;pressure;altitude;pressure_sealevel;temperature;humidity
9521;BME280;4798;41.574;23.734;2023-03-01T00:01:20;95758.44;;;9.57;100.00
9521;BME280;4798;41.574;23.734;2023-03-01T00:03:49;95755.25;;;9.55;100.00
9521;BME280;4798;41.574;23.734;2023-03-01T00:06:19;95758.16;;;9.59;100.00
9521;BME280;4798;41.574;23.734;2023-03-01T00:08:47;95740.22;;;9.98;100.00
9521;BME280;4798;41.574;23.734;2023-03-01T00:11:18;95730.03;;;10.16;100.00
9521;BME280;4798;41.574;23.734;2023-03-01T00:13:50;95729.19;;;9.74;100.00
9521;BME280;4798;41.574;23.734;2023-03-01T00:16:21;95721.94;;;9.59;100.00
9521;BME280;4798;41.574;23.734;2023-03-01T00:18:49;95744.66;;;10.24;100.00
9521;BME280;4798;41.574;23.734;2023-03-01T00:21:20;95748.28;;;10.55;100.00
9521;BME280;4798;41.574;23.734;2023-03-01T00:23:49;95742.72;;;10.61;100.00
9521;BME280;4798;41.574;23.734;2023-03-01T00:26:19;95729.22;;;10.68;100.00
9521;BME280;4798;41.574;23.734;2023-03-01T00:28:49;95717.88;;;10.72;100.00
9521;BME280;4798;41.574;23.734;2023-03-01T00:31:19;95729.28;;;10.88;100.00
9521;BME280;4798;41.574;23.734;2023-03-01T00:33:48;95739.91;;;10.88;100.00
9521;BME280;4798;41.574;23.734;2023-03-01T00:36:19;95737.81;;;10.95;100.00
9521;BME280;4798;41.574;23.734;2023-03-01T00:38:48;95744.66;;;10.86;100.00
9521;BME280;4798;41.574;23.734;2023-03-01T00:41:18;95748.44;;;11.00;100.00
9521;BME280;4798;41.574;23.734;2023-03-01T00:43:46;95677.78;;;10.59;100.00
9521;BME280;4798;41.574;23.734;2023-03-01T00:46:18;95753.75;;;11.00;100.00
9521;BME280;4798;41.574;23.734;2023-03-01T00:48:47;95750.47;;;10.83;100.00
9521;BME280;4798;41.574;23.734;2023-03-01T00:51:17;95744.69;;;10.96;100.00
9521;BME280;4798;41.574;23.734;2023-03-01T00:53:46;95744.13;;;10.79;100.00
9521;BME280;4798;41.574;23.734;2023-03-01T00:56:14;95749.47;;;10.89;100.00
9521;BME280;4798;41.574;23.734;2023-03-01T00:58:43;95713.72;;;10.35;100.00
9521;BME280;4798;41.574;23.734;2023-03-01T01:01:14;95752.06;;;10.79;100.00
9521;BME280;4798;41.574;23.734;2023-03-01T01:03:50;95749.75;;;10.93;100.00
9521;BME280;4798;41.574;23.734;2023-03-01T01:06:21;95737.81;;;10.95;100.00
9521;BME280;4798;41.574;23.734;2023-03-01T01:08:50;95739.63;;;10.79;100.00
9521;BME280;4798;41.574;23.734;2023-03-01T01:11:19;95744.91;;;9.86;100.00
9521;BME280;4798;41.574;23.734;2023-03-01T01:13:49;95742.94;;;9.71;100.00
9521;BME280;4798;41.574;23.734;2023-03-01T01:16:19;95742.91;;;9.39;100.00
9521;BME280;4798;41.574;23.734;2023-03-01T01:18:50;95737.56;;;9.03;100.00
9521;BME280;4798;41.574;23.734;2023-03-01T01:21:22;95743.66;;;9.03;100.00
9521;BME280;4798;41.574;23.734;2023-03-01T01:23:50;95737.50;;;9.24;100.00
9521;BME280;4798;41.574;23.734;2023-03-01T01:26:22;95732.28;;;9.61;100.00
9521;BME280;4798;41.574;23.734;2023-03-01T01:28:51;95734.31;;;9.86;100.00
9521;BME280;4798;41.574;23.734;2023-03-01T01:31:20;95733.06;;;9.62;100.00
9521;BME280;4798;41.574;23.734;2023-03-01T01:33:54;95735.09;;;9.81;100.00
9521;BME280;4798;41.574;23.734;2023-03-01T01:36:22;95651.59;;;9.32;100.00
9521;BME280;4798;41.574;23.734;2023-03-01T01:38:51;95729.38;;;9.63;100.00
9521;BME280;4798;41.574;23.734;2023-03-01T01:41:20;95724.44;;;9.76;100.00
9521;BME280;4798;41.574;23.734;2023-03-01T01:46:35;95723.78;;;9.59;100.00
9521;BME280;4798;41.574;23.734;2023-03-01T01:49:15;95723.28;;;9.62;100.00
9521;BME280;4798;41.574;23.734;2023-03-01T01:51:47;95714.00;;;9.28;100.00
9521;BME280;4798;41.574;23.734;2023-03-01T01:54:20;95728.88;;;9.39;100.00
9521;BME280;4798;41.574;23.734;2023-03-01T01:56:53;95715.34;;;9.30;100.00
9521;BME280;4798;41.574;23.734;2023-03-01T01:59:23;95705.88;;;9.71;100.00
9521;BME280;4798;41.574;23.734;2023-03-01T02:01:52;95702.47;;;9.76;100.00
9521;BME280;4798;41.574;23.734;2023-03-01T02:04:22;95675.91;;;9.29;100.00
9521;BME280;4798;41.574;23.734;2023-03-01T02:06:57;95710.84;;;9.31;100.00
9521;BME280;4798;41.574;23.734;2023-03-01T02:09:26;95689.47;;;9.37;100.00
9521;BME280;4798;41.574;23.734;2023-03-01T02:11:55;95694.31;;;9.19;100.00
9521;BME280;4798;41.574;23.734;2023-03-01T02:14:23;95683.47;;;9.15;100.00
9521;BME280;4798;41.574;23.734;2023-03-01T02:16:51;95675.13;;;9.28;100.00
9521;BME280;4798;41.574;23.734;2023-03-01T02:19:38;95660.19;;;9.49;100.00
9521;BME280;4798;41.574;23.734;2023-03-01T02:22:15;95616.66;;;8.98;100.00
9521;BME280;4798;41.574;23.734;2023-03-01T02:24:56;95671.03;;;9.47;100.00
9521;BME280;4798;41.574;23.734;2023-03-01T02:27:33;95667.16;;;9.23;100.00
9521;BME280;4798;41.574;23.734;2023-03-01T02:30:07;95668.53;;;9.68;100.00
9521;BME280;4798;41.574;23.734;2023-03-01T02:32:40;95671.25;;;9.41;100.00
9521;BME280;4798;41.574;23.734;2023-03-01T02:35:09;95669.47;;;9.51;100.00
9521;BME280;4798;41.574;23.734;2023-03-01T02:37:39;95668.97;;;9.54;100.00
9521;BME280;4798;41.574;23.734;2023-03-01T02:40:12;95672.25;;;9.35;100.00
9521;BME280;4798;41.574;23.734;2023-03-01T02:42:47;95673.34;;;9.39;100.00
9521;BME280;4798;41.574;23.734;2023-03-01T02:45:18;95670.25;;;9.84;100.00
9521;BME280;4798;41.574;23.734;2023-03-01T02:47:46;95590.03;;;9.41;100.00
9521;BME280;4798;41.574;23.734;2023-03-01T02:50:25;95624.75;;;9.50;100.00
9521;BME280;4798;41.574;23.734;2023-03-01T02:53:01;95649.84;;;9.84;100.00
9521;BME280;4798;41.574;23.734;2023-03-01T02:55:33;95533.41;;;8.64;100.00
9521;BME280;4798;41.574;23.734;2023-03-01T02:58:02;95640.94;;;9.53;100.00
9521;BME280;4798;41.574;23.734;2023-03-01T03:00:35;95644.66;;;9.21;100.00
9521;BME280;4798;41.574;23.734;2023-03-01T03:03:07;95634.72;;;9.06;100.00
9521;BME280;4798;41.574;23.734;2023-03-01T03:05:36;95650.00;;;8.99;100.00
9521;BME280;4798;41.574;23.734;2023-03-01T03:08:04;95466.38;;;7.90;100.00
9521;BME280;4798;41.574;23.734;2023-03-01T03:10:37;95636.09;;;9.14;100.00
9521;BME280;4798;41.574;23.734;2023-03-01T03:13:07;95645.63;;;9.46;100.00
9521;BME280;4798;41.574;23.734;2023-03-01T03:15:38;95640.88;;;9.90;100.00
9521;BME280;4798;41.574;23.734;2023-03-01T03:18:09;95633.38;;;9.77;100.00
9521;BME280;4798;41.574;23.734;2023-03-01T03:20:39;95629.16;;;9.76;100.00
9521;BME280;4798;41.574;23.734;2023-03-01T03:23:08;95615.09;;;9.34;100.00
9521;BME280;4798;41.574;23.734;2023-03-01T03:25:36;95616.31;;;9.53;100.00
9521;BME280;4798;41.574;23.734;2023-03-01T03:28:06;95619.94;;;9.84;100.00
9521;BME280;4798;41.574;23.734;2023-03-01T03:30:40;95616.50;;;9.88;100.00
9521;BME280;4798;41.574;23.734;2023-03-01T03:33:26;95614.97;;;9.97;100.00
9521;BME280;4798;41.574;23.734;2023-03-01T03:35:54;95624.19;;;9.43;100.00
9521;BME280;4798;41.574;23.734;2023-03-01T03:38:22;95618.31;;;9.78;100.00
9521;BME280;4798;41.574;23.734;2023-03-01T03:40:54;95629.06;;;9.61;100.00
9521;BME280;4798;41.574;23.734;2023-03-01T03:43:28;95539.41;;;9.23;100.00
9521;BME280;4798;41.574;23.734;2023-03-01T03:48:45;95581.09;;;9.11;100.00
9521;BME280;4798;41.574;23.734;2023-03-01T03:51:15;95637.72;;;9.93;100.00
9521;BME280;4798;41.574;23.734;2023-03-01T03:53:45;95641.63;;;10.33;100.00
9521;BME280;4798;41.574;23.734;2023-03-01T03:56:13;95442.84;;;8.73;100.00
9521;BME280;4798;41.574;23.734;2023-03-01T04:01:48;95638.00;;;9.55;100.00
9521;BME280;4798;41.574;23.734;2023-03-01T04:04:16;95637.56;;;9.68;100.00
9521;BME280;4798;41.574;23.734;2023-03-01T04:06:45;95630.53;;;9.84;100.00
9521;BME280;4798;41.574;23.734;2023-03-01T04:09:15;95642.63;;;10.16;100.00
9521;BME280;4798;41.574;23.734;2023-03-01T04:11:43;95642.69;;;10.32;100.00
9521;BME280;4798;41.574;23.734;2023-03-01T04:14:11;95627.91;;;9.89;100.00
9521;BME280;4798;41.574;23.734;2023-03-01T04:16:40;95634.84;;;10.05;100.00
9521;BME280;4798;41.574;23.734;2023-03-01T04:19:09;95641.22;;;9.62;100.00
9521;BME280;4798;41.574;23.734;2023-03-01T04:21:38;95631.28;;;9.79;100.00
9521;BME280;4798;41.574;23.734;2023-03-01T04:24:07;95633.41;;;9.40;100.00
9521;BME280;4798;41.574;23.734;2023-03-01T04:26:36;95642.28;;;9.56;100.00
9521;BME280;4798;41.574;23.734;2023-03-01T04:29:04;95635.88;;;9.52;100.00
9521;BME280;4798;41.574;23.734;2023-03-01T04:31:32;95639.69;;;9.66;100.00
9521;BME280;4798;41.574;23.734;2023-03-01T04:34:01;95631.34;;;9.47;100.00
9521;BME280;4798;41.574;23.734;2023-03-01T04:36:31;95634.75;;;9.43;100.00
9521;BME280;4798;41.574;23.734;2023-03-01T04:39:03;95625.03;;;9.48;100.00
9521;BME280;4798;41.574;23.734;2023-03-01T04:41:39;95632.63;;;9.40;100.00
9521;BME280;4798;41.574;23.734;2023-03-01T04:44:08;95636.53;;;9.74;100.00
9521;BME280;4798;41.574;23.734;2023-03-01T04:46:36;95633.69;;;9.81;100.00
9521;BME280;4798;41.574;23.734;2023-03-01T04:49:05;95641.78;;;9.64;100.00
9521;BME280;4798;41.574;23.734;2023-03-01T04:51:34;95637.28;;;10.11;100.00
9521;BME280;4798;41.574;23.734;2023-03-01T04:54:03;95619.56;;;10.17;100.00
9521;BME280;4798;41.574;23.734;2023-03-01T04:56:35;95642.53;;;10.01;100.00
9521;BME280;4798;41.574;23.734;2023-03-01T04:59:03;95594.88;;;10.01;100.00
9521;BME280;4798;41.574;23.734;2023-03-01T05:01:32;95640.16;;;10.05;100.00
9521;BME280;4798;41.574;23.734;2023-03-01T05:04:02;95645.41;;;10.00;100.00
9521;BME280;4798;41.574;23.734;2023-03-01T05:06:33;95641.59;;;9.76;100.00
9521;BME280;4798;41.574;23.734;2023-03-01T05:09:01;95636.91;;;9.46;100.00
9521;BME280;4798;41.574;23.734;2023-03-01T05:11:30;95642.59;;;9.70;100.00
9521;BME280;4798;41.574;23.734;2023-03-01T05:14:03;95644.06;;;9.50;100.00
9521;BME280;4798;41.574;23.734;2023-03-01T05:16:31;95605.31;;;9.71;100.00
9521;BME280;4798;41.574;23.734;2023-03-01T05:19:02;95638.16;;;9.80;100.00
9521;BME280;4798;41.574;23.734;2023-03-01T05:21:40;95644.03;;;9.87;100.00
9521;BME280;4798;41.574;23.734;2023-03-01T05:24:29;95628.72;;;9.99;100.00
9521;BME280;4798;41.574;23.734;2023-03-01T05:26:58;95644.38;;;10.01;100.00
9521;BME280;4798;41.574;23.734;2023-03-01T05:29:28;95615.28;;;9.59;100.00
9521;BME280;4798;41.574;23.734;2023-03-01T05:31:58;95652.00;;;9.92;100.00
9521;BME280;4798;41.574;23.734;2023-03-01T05:34:29;95646.03;;;9.65;100.00
9521;BME280;4798;41.574;23.734;2023-03-01T05:37:02;95654.47;;;9.62;100.00
9521;BME280;4798;41.574;23.734;2023-03-01T05:39:32;95653.38;;;9.58;100.00
9521;BME280;4798;41.574;23.734;2023-03-01T05:42:00;95649.09;;;9.52;100.00
9521;BME280;4798;41.574;23.734;2023-03-01T05:44:29;95650.22;;;10.08;100.00
9521;BME280;4798;41.574;23.734;2023-03-01T05:46:58;95651.25;;;10.02;100.00
9521;BME280;4798;41.574;23.734;2023-03-01T05:49:26;95657.38;;;10.07;100.00
9521;BME280;4798;41.574;23.734;2023-03-01T05:51:54;95656.00;;;10.42;100.00
9521;BME280;4798;41.574;23.734;2023-03-01T05:54:24;95618.13;;;9.99;100.00
9521;BME280;4798;41.574;23.734;2023-03-01T05:56:53;95657.88;;;10.04;99.85
9521;BME280;4798;41.574;23.734;2023-03-01T05:59:21;95667.06;;;10.29;100.00
9521;BME280;4798;41.574;23.734;2023-03-01T06:01:49;95656.88;;;10.67;100.00
9521;BME280;4798;41.574;23.734;2023-03-01T06:04:18;95659.25;;;10.64;100.00
9521;BME280;4798;41.574;23.734;2023-03-01T06:06:46;95666.13;;;10.55;100.00
9521;BME280;4798;41.574;23.734;2023-03-01T06:09:14;95666.19;;;10.80;100.00
9521;BME280;4798;41.574;23.734;2023-03-01T06:11:44;95665.41;;;10.95;100.00
9521;BME280;4798;41.574;23.734;2023-03-01T06:14:12;95673.91;;;11.12;100.00
9521;BME280;4798;41.574;23.734;2023-03-01T06:16:41;95668.91;;;11.20;98.22
9521;BME280;4798;41.574;23.734;2023-03-01T06:19:09;95675.25;;;11.14;100.00
9521;BME280;4798;41.574;23.734;2023-03-01T06:21:37;95659.50;;;10.57;99.98
9521;BME280;4798;41.574;23.734;2023-03-01T06:24:06;95669.06;;;10.68;100.00
9521;BME280;4798;41.574;23.734;2023-03-01T06:26:35;95676.06;;;11.10;99.94
9521;BME280;4798;41.574;23.734;2023-03-01T06:29:04;95674.47;;;11.19;100.00
9521;BME280;4798;41.574;23.734;2023-03-01T06:31:33;95671.78;;;11.14;100.00
9521;BME280;4798;41.574;23.734;2023-03-01T06:34:01;95677.88;;;11.04;100.00
9521;BME280;4798;41.574;23.734;2023-03-01T06:36:29;95681.63;;;11.23;97.25
9521;BME280;4798;41.574;23.734;2023-03-01T06:38:58;95677.94;;;11.44;97.01
9521;BME280;4798;41.574;23.734;2023-03-01T06:41:26;95625.38;;;11.06;95.07
9521;BME280;4798;41.574;23.734;2023-03-01T06:43:55;95664.13;;;11.27;94.29
9521;BME280;4798;41.574;23.734;2023-03-01T06:46:26;95673.41;;;11.35;94.11
9521;BME280;4798;41.574;23.734;2023-03-01T06:48:54;95659.88;;;11.52;93.79
9521;BME280;4798;41.574;23.734;2023-03-01T06:51:23;95684.03;;;11.40;100.00
9521;BME280;4798;41.574;23.734;2023-03-01T06:53:52;95685.88;;;11.34;100.00
9521;BME280;4798;41.574;23.734;2023-03-01T06:56:21;95687.50;;;11.51;100.00
9521;BME280;4798;41.574;23.734;2023-03-01T06:58:49;95686.16;;;11.23;100.00
9521;BME280;4798;41.574;23.734;2023-03-01T07:01:17;95683.22;;;11.55;100.00
9521;BME280;4798;41.574;23.734;2023-03-01T07:03:47;95682.69;;;11.68;100.00
9521;BME280;4798;41.574;23.734;2023-03-01T07:06:15;95679.25;;;11.67;100.00
9521;BME280;4798;41.574;23.734;2023-03-01T07:08:44;95680.59;;;11.75;100.00
9521;BME280;4798;41.574;23.734;2023-03-01T07:11:12;95681.09;;;11.67;100.00
9521;BME280;4798;41.574;23.734;2023-03-01T07:13:41;95686.41;;;11.31;100.00
9521;BME280;4798;41.574;23.734;2023-03-01T07:16:09;95684.81;;;11.15;100.00
9521;BME280;4798;41.574;23.734;2023-03-01T07:18:37;95688.00;;;11.42;100.00
9521;BME280;4798;41.574;23.734;2023-03-01T07:21:08;95608.09;;;10.83;100.00
9521;BME280;4798;41.574;23.734;2023-03-01T07:23:37;95687.75;;;11.74;100.00
9521;BME280;4798;41.574;23.734;2023-03-01T07:26:06;95688.03;;;11.58;100.00
9521;BME280;4798;41.574;23.734;2023-03-01T07:28:34;95682.97;;;11.66;100.00
9521;BME280;4798;41.574;23.734;2023-03-01T07:31:06;95690.94;;;11.61;100.00
9521;BME280;4798;41.574;23.734;2023-03-01T07:33:34;95689.34;;;11.40;97.20
9521;BME280;4798;41.574;23.734;2023-03-01T07:36:03;95658.28;;;11.35;92.21
9521;BME280;4798;41.574;23.734;2023-03-01T07:38:33;95680.34;;;11.71;92.92
9521;BME280;4798;41.574;23.734;2023-03-01T07:41:03;95680.59;;;11.44;89.91
9521;BME280;4798;41.574;23.734;2023-03-01T07:43:32;95681.38;;;11.25;92.12
9521;BME280;4798;41.574;23.734;2023-03-01T07:46:02;95683.22;;;11.24;90.65
9521;BME280;4798;41.574;23.734;2023-03-01T07:48:31;95678.72;;;11.50;90.09
9521;BME280;4798;41.574;23.734;2023-03-01T07:51:00;95691.19;;;11.19;90.24
9521;BME280;4798;41.574;23.734;2023-03-01T07:53:28;95680.59;;;11.80;88.02
9521;BME280;4798;41.574;23.734;2023-03-01T07:56:03;95671.81;;;11.64;87.73
9521;BME280;4798;41.574;23.734;2023-03-01T07:58:34;95623.00;;;11.40;88.61
9521;BME280;4798;41.574;23.734;2023-03-01T08:01:04;95675.78;;;11.67;89.83
9521;BME280;4798;41.574;23.734;2023-03-01T08:03:33;95676.59;;;11.62;89.49
9521;BME280;4798;41.574;23.734;2023-03-01T08:06:02;95634.63;;;11.94;87.05
9521;BME280;4798;41.574;23.734;2023-03-01T08:08:31;95675.63;;;12.47;86.65
9521;BME280;4798;41.574;23.734;2023-03-01T08:11:00;95671.97;;;12.33;83.22
9521;BME280;4798;41.574;23.734;2023-03-01T08:13:31;95676.50;;;12.33;87.16
9521;BME280;4798;41.574;23.734;2023-03-01T08:16:01;95672.00;;;12.23;84.87
9521;BME280;4798;41.574;23.734;2023-03-01T08:18:30;95658.97;;;12.32;84.72
9521;BME280;4798;41.574;23.734;2023-03-01T08:21:01;95658.44;;;12.25;85.27
9521;BME280;4798;41.574;23.734;2023-03-01T08:23:30;95663.34;;;11.77;85.86
9521;BME280;4798;41.574;23.734;2023-03-01T08:26:06;95657.22;;;11.57;84.65
9521;BME280;4798;41.574;23.734;2023-03-01T08:28:36;95657.22;;;11.72;84.06
9521;BME280;4798;41.574;23.734;2023-03-01T08:31:14;95661.38;;;12.18;83.37
9521;BME280;4798;41.574;23.734;2023-03-01T08:33:43;95654.56;;;11.62;84.55
9521;BME280;4798;41.574;23.734;2023-03-01T08:36:17;95660.59;;;12.13;85.01
9521;BME280;4798;41.574;23.734;2023-03-01T08:38:47;95665.91;;;12.18;83.66
9521;BME280;4798;41.574;23.734;2023-03-01T08:41:16;95660.03;;;12.31;83.81
9521;BME280;4798;41.574;23.734;2023-03-01T08:43:46;95664.13;;;11.88;85.10
9521;BME280;4798;41.574;23.734;2023-03-01T08:46:14;95661.66;;;12.22;83.54
9521;BME280;4798;41.574;23.734;2023-03-01T08:48:42;95654.78;;;12.10;83.69
9521;BME280;4798;41.574;23.734;2023-03-01T08:51:13;95656.03;;;12.28;83.58
9521;BME280;4798;41.574;23.734;2023-03-01T08:53:42;95649.41;;;12.26;83.92
9521;BME280;4798;41.574;23.734;2023-03-01T08:56:10;95644.78;;;12.51;84.10
9521;BME280;4798;41.574;23.734;2023-03-01T08:58:39;95643.28;;;12.30;84.09
9521;BME280;4798;41.574;23.734;2023-03-01T09:01:10;95644.22;;;12.59;83.63
9521;BME280;4798;41.574;23.734;2023-03-01T09:03:38;95645.72;;;12.75;81.98
9521;BME280;4798;41.574;23.734;2023-03-01T09:06:07;95644.63;;;12.23;85.27
9521;BME280;4798;41.574;23.734;2023-03-01T09:08:36;95642.75;;;12.28;84.38
9521;BME280;4798;41.574;23.734;2023-03-01T09:11:06;95643.13;;;12.65;82.98
9521;BME280;4798;41.574;23.734;2023-03-01T09:13:35;95583.28;;;12.19;84.12
9521;BME280;4798;41.574;23.734;2023-03-01T09:16:05;95644.47;;;12.58;83.56
9521;BME280;4798;41.574;23.734;2023-03-01T09:18:35;95635.03;;;12.37;84.11
9521;BME280;4798;41.574;23.734;2023-03-01T09:21:05;95635.69;;;12.62;83.98
9521;BME280;4798;41.574;23.734;2023-03-01T09:23:35;95626.34;;;12.65;83.01
9521;BME280;4798;41.574;23.734;2023-03-01T09:26:05;95637.16;;;12.84;81.93
9521;BME280;4798;41.574;23.734;2023-03-01T09:28:35;95634.88;;;13.11;82.46
9521;BME280;4798;41.574;23.734;2023-03-01T09:31:05;95558.84;;;12.61;81.13
9521;BME280;4798;41.574;23.734;2023-03-01T09:33:35;95641.53;;;13.13;80.83
9521;BME280;4798;41.574;23.734;2023-03-01T09:36:05;95639.41;;;13.15;80.62
9521;BME280;4798;41.574;23.734;2023-03-01T09:38:34;95644.88;;;12.85;81.20
9521;BME280;4798;41.574;23.734;2023-03-01T09:41:09;95623.66;;;13.19;81.51
9521;BME280;4798;41.574;23.734;2023-03-01T09:43:43;95612.50;;;13.17;80.80
9521;BME280;4798;41.574;23.734;2023-03-01T09:46:14;95629.72;;;12.86;79.71
9521;BME280;4798;41.574;23.734;2023-03-01T09:48:49;95606.88;;;12.80;80.58
9521;BME280;4798;41.574;23.734;2023-03-01T09:51:23;95502.53;;;12.10;79.68
9521;BME280;4798;41.574;23.734;2023-03-01T09:53:53;95584.31;;;12.23;79.75
9521;BME280;4798;41.574;23.734;2023-03-01T09:56:30;95624.69;;;12.79;81.11
9521;BME280;4798;41.574;23.734;2023-03-01T09:59:09;95623.03;;;12.88;80.94
9521;BME280;4798;41.574;23.734;2023-03-01T10:01:46;95625.81;;;13.17;81.03
9521;BME280;4798;41.574;23.734;2023-03-01T10:04:36;95621.72;;;12.86;80.70
9521;BME280;4798;41.574;23.734;2023-03-01T10:07:27;95624.53;;;13.09;81.71
9521;BME280;4798;41.574;23.734;2023-03-01T10:09:58;95454.63;;;11.81;79.75
9521;BME280;4798;41.574;23.734;2023-03-01T10:12:32;95604.59;;;13.41;79.51
9521;BME280;4798;41.574;23.734;2023-03-01T10:15:05;95613.94;;;13.38;76.94
9521;BME280;4798;41.574;23.734;2023-03-01T10:17:39;95603.22;;;13.48;77.01
9521;BME280;4798;41.574;23.734;2023-03-01T10:20:23;95611.16;;;13.77;77.53
9521;BME280;4798;41.574;23.734;2023-03-01T10:22:52;95596.84;;;13.96;79.51
9521;BME280;4798;41.574;23.734;2023-03-01T10:25:41;95604.38;;;13.89;78.96
9521;BME280;4798;41.574;23.734;2023-03-01T10:28:16;95598.75;;;13.67;80.69
9521;BME280;4798;41.574;23.734;2023-03-01T10:30:45;95595.59;;;13.65;80.79
9521;BME280;4798;41.574;23.734;2023-03-01T10:33:17;95594.16;;;13.44;81.61
9521;BME280;4798;41.574;23.734;2023-03-01T10:35:49;95588.94;;;13.34;82.96
9521;BME280;4798;41.574;23.734;2023-03-01T10:38:19;95590.56;;;13.30;83.63
9521;BME280;4798;41.574;23.734;2023-03-01T10:40:53;95586.41;;;13.19;84.50
9521;BME280;4798;41.574;23.734;2023-03-01T10:43:24;95530.00;;;13.17;83.21
9521;BME280;4798;41.574;23.734;2023-03-01T10:45:53;95585.69;;;13.42;83.70
9521;BME280;4798;41.574;23.734;2023-03-01T10:48:23;95578.94;;;13.21;83.13
9521;BME280;4798;41.574;23.734;2023-03-01T10:51:06;95581.63;;;13.16;82.48
9521;BME280;4798;41.574;23.734;2023-03-01T10:53:37;95555.31;;;13.43;82.49
9521;BME280;4798;41.574;23.734;2023-03-01T10:56:09;95559.56;;;13.44;80.54
9521;BME280;4798;41.574;23.734;2023-03-01T10:58:39;95559.56;;;13.44;80.81
9521;BME280;4798;41.574;23.734;2023-03-01T11:01:26;95566.31;;;13.31;81.28
9521;BME280;4798;41.574;23.734;2023-03-01T11:04:11;95559.56;;;13.44;81.69
9521;BME280;4798;41.574;23.734;2023-03-01T11:06:42;95554.22;;;13.44;82.09
9521;BME280;4798;41.574;23.734;2023-03-01T11:09:15;95539.81;;;13.50;82.04
9521;BME280;4798;41.574;23.734;2023-03-01T11:11:44;95548.34;;;13.47;81.47
9521;BME280;4798;41.574;23.734;2023-03-01T11:14:16;95544.25;;;13.83;79.46
9521;BME280;4798;41.574;23.734;2023-03-01T11:16:59;95539.47;;;13.57;78.83
9521;BME280;4798;41.574;23.734;2023-03-01T11:19:28;95542.06;;;13.62;79.40
9521;BME280;4798;41.574;23.734;2023-03-01T11:22:02;95536.06;;;13.51;78.90
9521;BME280;4798;41.574;23.734;2023-03-01T11:24:36;95544.63;;;13.19;80.87
9521;BME280;4798;41.574;23.734;2023-03-01T11:27:16;95542.88;;;13.33;81.58
9521;BME280;4798;41.574;23.734;2023-03-01T11:29:46;95513.44;;;13.49;81.78
9521;BME280;4798;41.574;23.734;2023-03-01T11:32:19;95523.09;;;12.82;83.15
9521;BME280;4798;41.574;23.734;2023-03-01T11:34:53;95533.00;;;13.05;82.31
9521;BME280;4798;41.574;23.734;2023-03-01T11:37:32;95532.47;;;13.37;81.51
9521;BME280;4798;41.574;23.734;2023-03-01T11:40:21;95528.84;;;12.94;83.40
9521;BME280;4798;41.574;23.734;2023-03-01T11:43:02;95526.28;;;13.18;82.71
9521;BME280;4798;41.574;23.734;2023-03-01T11:45:45;95516.44;;;13.42;81.44
9521;BME280;4798;41.574;23.734;2023-03-01T11:48:30;95514.84;;;13.41;81.97
9521;BME280;4798;41.574;23.734;2023-03-01T11:51:21;95507.19;;;13.63;79.89
9521;BME280;4798;41.574;23.734;2023-03-01T11:54:06;95511.13;;;13.42;79.51
9521;BME280;4798;41.574;23.734;2023-03-01T11:56:41;95507.06;;;13.73;78.98
9521;BME280;4798;41.574;23.734;2023-03-01T11:59:28;95512.25;;;14.31;77.60
9521;BME280;4798;41.574;23.734;2023-03-01T12:07:59;95492.22;;;14.10;77.57
9521;BME280;4798;41.574;23.734;2023-03-01T12:10:35;95502.69;;;14.06;76.98
9521;BME280;4798;41.574;23.734;2023-03-01T12:13:23;95503.56;;;13.78;77.91
9521;BME280;4798;41.574;23.734;2023-03-01T12:16:20;95492.59;;;13.79;78.49
9521;BME280;4798;41.574;23.734;2023-03-01T12:19:26;95489.63;;;14.05;77.40
9521;BME280;4798;41.574;23.734;2023-03-01T12:22:09;95486.00;;;14.38;75.43
9521;BME280;4798;41.574;23.734;2023-03-01T12:28:04;95490.72;;;14.22;75.77
9521;BME280;4798;41.574;23.734;2023-03-01T12:30:48;95463.31;;;14.17;76.34
9521;BME280;4798;41.574;23.734;2023-03-01T12:33:26;95481.94;;;14.22;76.58
9521;BME280;4798;41.574;23.734;2023-03-01T12:36:31;95480.00;;;13.85;76.87
9521;BME280;4798;41.574;23.734;2023-03-01T12:39:14;95481.31;;;13.87;78.12
9521;BME280;4798;41.574;23.734;2023-03-01T12:41:56;95476.25;;;14.28;76.28
9521;BME280;4798;41.574;23.734;2023-03-01T12:44:41;95477.53;;;14.12;76.11
9521;BME280;4798;41.574;23.734;2023-03-01T12:47:26;95414.84;;;14.15;76.93
9521;BME280;4798;41.574;23.734;2023-03-01T12:50:02;95470.81;;;14.38;76.79
9521;BME280;4798;41.574;23.734;2023-03-01T12:52:37;95480.44;;;14.72;75.21
9521;BME280;4798;41.574;23.734;2023-03-01T12:55:15;95476.66;;;14.73;75.44
9521;BME280;4798;41.574;23.734;2023-03-01T12:57:49;95394.28;;;14.39;76.62
9521;BME280;4798;41.574;23.734;2023-03-01T13:00:27;95481.31;;;14.99;74.32
9521;BME280;4798;41.574;23.734;2023-03-01T13:03:04;95475.44;;;14.65;76.83
9521;BME280;4798;41.574;23.734;2023-03-01T13:05:44;95467.09;;;14.53;75.23
9521;BME280;4798;41.574;23.734;2023-03-01T13:08:19;95418.38;;;13.91;74.43
9521;BME280;4798;41.574;23.734;2023-03-01T13:10:50;95462.34;;;14.50;74.16
9521;BME280;4798;41.574;23.734;2023-03-01T13:13:21;95478.25;;;14.18;75.59
9521;BME280;4798;41.574;23.734;2023-03-01T13:15:52;95476.84;;;14.44;74.44
9521;BME280;4798;41.574;23.734;2023-03-01T13:18:32;95475.19;;;14.29;74.55
9521;BME280;4798;41.574;23.734;2023-03-01T13:21:02;95455.59;;;14.39;74.06
9521;BME280;4798;41.574;23.734;2023-03-01T13:23:34;95478.31;;;14.36;74.87
9521;BME280;4798;41.574;23.734;2023-03-01T13:26:09;95475.19;;;14.48;74.85
9521;BME280;4798;41.574;23.734;2023-03-01T13:28:48;95475.56;;;14.41;74.40
9521;BME280;4798;41.574;23.734;2023-03-01T13:34:44;95467.09;;;14.72;74.25
9521;BME280;4798;41.574;23.734;2023-03-01T13:37:29;95461.22;;;14.88;74.17
9521;BME280;4798;41.574;23.734;2023-03-01T13:40:00;95413.03;;;14.66;73.02
9521;BME280;4798;41.574;23.734;2023-03-01T13:42:38;95457.03;;;15.14;72.59
9521;BME280;4798;41.574;23.734;2023-03-01T13:45:17;95423.13;;;14.83;72.65
9521;BME280;4798;41.574;23.734;2023-03-01T13:47:50;95459.53;;;15.24;72.96
9521;BME280;4798;41.574;23.734;2023-03-01T13:50:23;95468.13;;;15.21;72.55
9521;BME280;4798;41.574;23.734;2023-03-01T13:52:55;95467.47;;;14.97;74.30
9521;BME280;4798;41.574;23.734;2023-03-01T13:55:32;95461.13;;;14.61;74.70
9521;BME280;4798;41.574;23.734;2023-03-01T13:58:12;95469.78;;;14.85;75.15